createdAt,value
2018-07-22T00:00:59.529Z,81.43
2018-07-22T00:03:29.583Z,81.67
2018-07-22T00:06:00.705Z,81.39
2018-07-22T00:08:31.705Z,82.54
2018-07-22T00:11:01.529Z,83.46
2018-07-22T00:13:32.803Z,84.45
2018-07-22T00:16:04.088Z,83.64
2018-07-22T00:18:33.899Z,83.91
2018-07-22T00:21:03.766Z,82.61
2018-07-22T00:23:33.778Z,82.54
2018-07-22T00:26:05.001Z,83.76
2018-07-22T00:28:36.087Z,84.15
2018-07-22T00:31:05.964Z,85.18
2018-07-22T00:33:35.895Z,86.87
2018-07-22T00:36:05.752Z,86.42
2018-07-22T00:38:37.877Z,86.28
2018-07-22T00:41:08.456Z,86.98
2018-07-22T00:43:38.338Z,86.33
2018-07-22T00:46:08.678Z,85.74
2018-07-22T00:48:40.588Z,86.12
2018-07-22T00:54:22.385Z,86.68
2018-07-22T00:56:55.388Z,87.46
2018-07-22T00:59:26.808Z,87.23
2018-07-22T01:01:57.632Z,88.01
2018-07-22T01:04:28.551Z,87.39
2018-07-22T01:06:59.664Z,88.04
2018-07-22T01:09:30.698Z,89.14
2018-07-22T01:12:01.597Z,90.34
2018-07-22T01:14:31.917Z,90.03
2018-07-22T01:17:01.840Z,90.07
2018-07-22T01:19:31.859Z,89.34
2018-07-22T01:22:01.727Z,89.72
2018-07-22T01:24:31.692Z,89.16
2018-07-22T01:27:01.644Z,90.20
2018-07-22T01:29:31.591Z,89.34
2018-07-22T01:32:01.707Z,89.52
2018-07-22T01:34:31.640Z,90.05
2018-07-22T01:37:01.730Z,89.30
2018-07-22T01:39:31.675Z,90.28
2018-07-22T01:42:01.647Z,90.27
2018-07-22T01:44:31.757Z,90.59
2018-07-22T01:47:01.996Z,90.70
2018-07-22T01:49:31.917Z,90.13
2018-07-22T01:52:03.801Z,90.65
2018-07-22T01:54:33.977Z,93.85
2018-07-22T01:57:04.161Z,92.71
2018-07-22T01:59:35.786Z,91.18
2018-07-22T02:02:06.472Z,90.87
2018-07-22T02:04:36.398Z,90.69
2018-07-22T02:07:07.434Z,89.75
2018-07-22T02:09:37.552Z,91.21
2018-07-22T02:12:08.536Z,90.40
2018-07-22T02:14:39.579Z,91.28
2018-07-22T02:17:09.619Z,92.33
2018-07-22T02:20:06.239Z,91.96
2018-07-22T02:22:39.392Z,92.50
2018-07-22T02:25:12.333Z,92.03
2018-07-22T02:27:43.296Z,91.94
2018-07-22T02:30:13.292Z,93.05
2018-07-22T02:32:44.245Z,93.62
2018-07-22T02:35:18.314Z,93.98
2018-07-22T02:37:48.379Z,94.74
2018-07-22T02:40:20.592Z,91.95
2018-07-22T02:42:51.826Z,91.48
2018-07-22T02:45:21.850Z,92.61
2018-07-22T02:47:51.735Z,93.34
2018-07-22T02:50:25.053Z,92.93
2018-07-22T02:52:56.089Z,88.34
2018-07-22T02:55:27.581Z,88.12
2018-07-22T02:57:58.312Z,89.28
2018-07-22T03:00:28.463Z,91.91
2018-07-22T03:02:59.857Z,95.51
2018-07-22T03:05:29.818Z,96.93
2018-07-22T03:07:59.792Z,97.76
2018-07-22T03:10:29.743Z,98.85
2018-07-22T03:12:59.761Z,98.77
2018-07-22T03:15:29.715Z,99.76
2018-07-22T03:18:22.782Z,99.93
2018-07-22T03:20:58.242Z,100.00
2018-07-22T03:23:33.609Z,100.00
2018-07-22T03:26:04.382Z,100.00
2018-07-22T03:28:34.729Z,100.00
2018-07-22T03:31:04.710Z,100.00
2018-07-22T03:33:35.374Z,100.00
2018-07-22T03:36:06.013Z,100.00
2018-07-22T03:38:35.872Z,100.00
2018-07-22T03:41:06.382Z,100.00
2018-07-22T03:43:36.221Z,100.00
2018-07-22T03:46:06.613Z,100.00
2018-07-22T03:48:36.639Z,100.00
2018-07-22T03:51:07.167Z,100.00
2018-07-22T03:53:37.012Z,100.00
2018-07-22T03:56:07.222Z,100.00
2018-07-22T03:58:37.330Z,100.00
2018-07-22T04:01:07.916Z,100.00
2018-07-22T04:03:37.756Z,100.00
2018-07-22T04:06:08.284Z,100.00
2018-07-22T04:08:38.223Z,100.00
2018-07-22T04:11:09.021Z,100.00
2018-07-22T04:13:38.969Z,100.00
2018-07-22T04:16:09.343Z,100.00
2018-07-22T04:18:43.961Z,100.00
2018-07-22T04:21:13.879Z,100.00
2018-07-22T04:23:43.939Z,100.00
2018-07-22T04:26:13.832Z,100.00
2018-07-22T04:28:43.717Z,97.47
2018-07-22T04:31:13.664Z,95.38
2018-07-22T04:33:43.736Z,94.44
2018-07-22T04:36:14.271Z,94.67
2018-07-22T04:38:44.299Z,93.61
2018-07-22T04:41:14.356Z,92.03
2018-07-22T04:43:44.684Z,90.39
2018-07-22T04:46:14.762Z,88.84
2018-07-22T04:48:44.806Z,87.65
2018-07-22T04:51:14.843Z,85.97
2018-07-22T04:53:45.244Z,84.63
2018-07-22T04:56:15.264Z,82.10
2018-07-22T04:58:45.266Z,83.85
2018-07-22T05:01:15.227Z,84.74
2018-07-22T05:03:45.300Z,82.41
2018-07-22T05:06:15.384Z,80.53
2018-07-22T05:08:45.830Z,78.50
2018-07-22T05:11:15.900Z,78.65
2018-07-22T05:13:46.070Z,77.54
2018-07-22T05:16:16.109Z,75.46
2018-07-22T05:18:46.073Z,72.75
2018-07-22T05:21:16.229Z,73.45
2018-07-22T05:23:46.249Z,73.83
2018-07-22T05:26:16.173Z,74.85
2018-07-22T05:28:46.239Z,72.96
2018-07-22T05:31:16.196Z,71.76
2018-07-22T05:33:46.187Z,71.89
2018-07-22T05:36:16.236Z,71.64
2018-07-22T05:38:46.323Z,71.43
2018-07-22T05:41:16.324Z,70.81
2018-07-22T05:43:46.304Z,70.30
2018-07-22T05:46:16.347Z,69.52
2018-07-22T05:48:46.343Z,68.33
2018-07-22T05:51:16.245Z,69.29
2018-07-22T05:53:46.788Z,67.68
2018-07-22T05:56:17.063Z,69.34
2018-07-22T05:58:47.119Z,73.05
2018-07-22T06:01:17.471Z,73.43
2018-07-22T06:03:47.576Z,71.87
2018-07-22T06:06:17.765Z,72.70
2018-07-22T06:08:48.072Z,70.79
2018-07-22T06:11:18.011Z,73.02
2018-07-22T06:13:48.760Z,74.24
2018-07-22T06:16:18.803Z,70.38
2018-07-22T06:18:54.254Z,72.83
2018-07-22T06:21:25.789Z,67.91
2018-07-22T06:23:55.859Z,67.35
2018-07-22T06:26:48.059Z,66.29
2018-07-22T06:29:18.384Z,67.05
2018-07-22T06:31:50.341Z,66.61
2018-07-22T06:34:22.826Z,65.76
2018-07-22T06:36:52.779Z,65.23
2018-07-22T06:39:22.750Z,68.91
2018-07-22T06:41:52.693Z,67.73
2018-07-22T06:44:22.660Z,68.91
2018-07-22T06:46:52.567Z,67.78
2018-07-22T06:49:22.723Z,65.35
2018-07-22T06:51:52.652Z,65.32
2018-07-22T06:54:22.671Z,65.90
2018-07-22T06:57:06.952Z,68.83
2018-07-22T06:59:36.928Z,70.66
2018-07-22T07:02:07.916Z,67.05
2018-07-22T07:04:37.882Z,67.18
2018-07-22T07:07:08.730Z,67.40
2018-07-22T07:09:39.453Z,66.84
2018-07-22T07:12:09.955Z,64.23
2018-07-22T07:14:40.007Z,64.13
2018-07-22T07:17:10.069Z,63.65
2018-07-22T07:19:40.144Z,61.87
2018-07-22T07:22:18.083Z,64.59
2018-07-22T07:24:48.063Z,62.75
2018-07-22T07:27:18.131Z,61.51
2018-07-22T07:29:48.002Z,59.49
2018-07-22T07:32:17.877Z,61.65
2018-07-22T07:34:47.837Z,62.96
2018-07-22T07:37:18.000Z,58.28
2018-07-22T07:39:47.890Z,57.56
2018-07-22T07:42:18.080Z,57.70
2018-07-22T07:44:48.621Z,56.56
2018-07-22T07:47:19.046Z,56.46
2018-07-22T07:49:50.204Z,57.21
2018-07-22T07:52:20.232Z,57.54
2018-07-22T07:54:50.103Z,55.80
2018-07-22T07:57:20.312Z,56.78
2018-07-22T07:59:53.423Z,51.57
2018-07-22T08:02:25.417Z,53.16
2018-07-22T08:04:55.848Z,53.77
2018-07-22T08:07:25.915Z,52.88
2018-07-22T08:09:55.947Z,53.49
2018-07-22T08:12:25.864Z,49.22
2018-07-22T08:14:55.961Z,54.31
2018-07-22T08:17:26.065Z,53.18
2018-07-22T08:19:56.026Z,53.81
2018-07-22T08:22:25.988Z,52.20
2018-07-22T08:24:55.879Z,51.31
2018-07-22T08:27:25.757Z,53.20
2018-07-22T08:29:55.898Z,55.69
2018-07-22T08:32:25.743Z,56.46
2018-07-22T08:34:55.702Z,56.86
2018-07-22T08:37:25.909Z,59.32
2018-07-22T08:39:55.795Z,56.02
2018-07-22T08:42:25.705Z,54.02
2018-07-22T08:44:55.821Z,55.31
2018-07-22T08:47:25.947Z,57.00
2018-07-22T08:49:55.948Z,58.18
2018-07-22T08:52:26.007Z,54.56
2018-07-22T08:54:55.955Z,50.94
2018-07-22T08:57:25.916Z,51.47
2018-07-22T08:59:55.859Z,54.73
2018-07-22T09:02:25.775Z,49.98
2018-07-22T09:04:55.686Z,50.44
2018-07-22T09:07:25.580Z,46.31
2018-07-22T09:09:55.502Z,47.11
2018-07-22T09:12:25.421Z,48.48
2018-07-22T09:14:56.677Z,47.10
2018-07-22T09:17:26.715Z,45.94
2018-07-22T09:19:56.635Z,46.82
2018-07-22T09:22:26.569Z,48.00
2018-07-22T09:24:56.396Z,47.77
2018-07-22T09:27:26.271Z,48.48
2018-07-22T09:29:56.057Z,44.79
2018-07-22T09:32:25.989Z,42.42
2018-07-22T09:34:56.075Z,41.45
2018-07-22T09:37:26.195Z,41.71
2018-07-22T09:39:56.237Z,43.46
2018-07-22T09:42:26.117Z,43.03
2018-07-22T09:44:56.183Z,42.97
2018-07-22T09:47:26.044Z,44.84
2018-07-22T09:49:55.852Z,45.40
2018-07-22T09:52:26.692Z,46.20
2018-07-22T09:54:56.567Z,47.17
2018-07-22T09:57:26.469Z,47.04
2018-07-22T09:59:57.011Z,46.47
2018-07-22T10:02:27.037Z,47.51
2018-07-22T10:04:57.203Z,48.28
2018-07-22T10:07:27.695Z,48.95
2018-07-22T10:09:57.679Z,44.72
2018-07-22T10:12:27.733Z,43.96
2018-07-22T10:14:57.696Z,42.39
2018-07-22T10:35:25.748Z,43.23
2018-07-22T10:37:55.644Z,44.45
2018-07-22T10:40:25.669Z,44.20
2018-07-22T10:42:55.579Z,47.01
2018-07-22T10:45:25.498Z,47.29
2018-07-22T10:47:55.395Z,48.00
2018-07-22T10:50:25.519Z,47.72
2018-07-22T10:52:55.450Z,42.55
2018-07-22T10:55:25.659Z,42.06
2018-07-22T10:57:55.809Z,38.54
2018-07-22T11:00:25.800Z,35.13
2018-07-22T11:02:55.713Z,37.97
2018-07-22T11:05:25.698Z,37.40
2018-07-22T11:07:55.775Z,37.89
2018-07-22T11:10:25.921Z,38.96
2018-07-22T11:12:55.852Z,40.35
2018-07-22T11:15:25.854Z,42.28
2018-07-22T11:17:55.856Z,41.72
2018-07-22T11:20:25.855Z,41.42
2018-07-22T11:22:55.716Z,37.88
2018-07-22T11:25:25.834Z,35.55
2018-07-22T11:27:55.717Z,36.23
2018-07-22T11:30:25.748Z,39.00
2018-07-22T11:32:55.786Z,39.59
2018-07-22T11:35:25.752Z,40.26
2018-07-22T11:37:55.817Z,38.99
2018-07-22T11:40:25.922Z,39.17
2018-07-22T11:42:56.115Z,36.00
2018-07-22T11:45:26.295Z,34.40
2018-07-22T11:47:56.250Z,34.13
2018-07-22T11:50:26.368Z,35.24
2018-07-22T11:52:56.287Z,35.93
2018-07-22T11:55:26.240Z,36.77
2018-07-22T11:57:56.116Z,37.22
2018-07-22T12:00:26.143Z,37.05
2018-07-22T12:02:56.433Z,38.94
2018-07-22T12:05:26.362Z,37.88
2018-07-22T12:07:56.292Z,39.10
2018-07-22T12:10:26.217Z,35.53
2018-07-22T12:12:56.272Z,35.20
2018-07-22T12:15:26.219Z,33.70
2018-07-22T12:17:56.168Z,32.67
2018-07-22T12:20:26.128Z,32.53
2018-07-22T12:22:56.136Z,30.45
2018-07-22T12:25:26.069Z,30.75
2018-07-22T12:27:56.085Z,28.94
2018-07-22T12:30:26.380Z,30.17
2018-07-22T12:32:56.350Z,28.90
2018-07-22T12:35:26.294Z,31.14
2018-07-22T12:37:56.206Z,30.18
2018-07-22T12:40:26.179Z,29.39
2018-07-22T12:42:56.145Z,30.84
2018-07-22T12:45:25.978Z,28.20
2018-07-22T12:47:56.304Z,29.26
2018-07-22T12:50:26.208Z,26.55
2018-07-22T12:52:56.930Z,29.59
2018-07-22T12:55:28.799Z,30.88
2018-07-22T12:58:01.549Z,29.48
2018-07-22T13:00:33.824Z,31.21
2018-07-22T13:03:04.382Z,29.52
2018-07-22T13:05:34.449Z,29.73
2018-07-22T13:08:10.709Z,27.80
2018-07-22T13:10:41.664Z,28.46
2018-07-22T13:13:11.521Z,29.41
2018-07-22T13:15:41.737Z,28.87
2018-07-22T13:18:12.301Z,28.74
2018-07-22T13:20:43.578Z,29.70
2018-07-22T13:23:16.813Z,31.07
2018-07-22T13:25:48.127Z,32.64
2018-07-22T13:28:18.204Z,32.02
2018-07-22T13:30:54.173Z,31.49
2018-07-22T13:33:26.512Z,29.98
2018-07-22T13:35:56.408Z,30.98
2018-07-22T13:38:26.859Z,31.77
2018-07-22T13:40:56.770Z,30.81
2018-07-22T13:43:26.752Z,31.09
2018-07-22T13:45:57.023Z,27.62
2018-07-22T13:48:26.965Z,28.93
2018-07-22T13:50:57.202Z,30.12
2018-07-22T13:53:27.107Z,30.38
2018-07-22T13:55:59.320Z,30.85
2018-07-22T13:58:29.255Z,30.71
2018-07-22T14:00:59.180Z,30.34
2018-07-22T14:03:29.097Z,31.61
2018-07-22T14:05:59.116Z,32.02
2018-07-22T14:08:29.239Z,31.78
2018-07-22T14:11:01.509Z,32.29
2018-07-22T14:13:31.537Z,33.37
2018-07-22T14:16:03.809Z,31.65
2018-07-22T14:18:33.787Z,31.03
2018-07-22T14:21:04.928Z,31.27
2018-07-22T14:23:36.499Z,32.41
2018-07-22T14:26:08.215Z,32.58
2018-07-22T14:28:38.250Z,34.17
2018-07-22T14:31:09.664Z,35.25
2018-07-22T14:33:39.714Z,34.61
2018-07-22T14:36:09.879Z,35.17
2018-07-22T14:38:40.117Z,35.99
2018-07-22T14:41:10.301Z,38.23
2018-07-22T14:43:40.219Z,40.30
2018-07-22T14:46:11.044Z,41.99
2018-07-22T14:48:41.183Z,42.93
2018-07-22T14:51:11.644Z,43.98
2018-07-22T14:53:43.978Z,44.37
2018-07-22T14:56:14.646Z,44.42
2018-07-22T14:58:44.658Z,44.57
2018-07-22T15:01:14.951Z,44.53
2018-07-22T15:03:45.505Z,42.72
2018-07-22T15:06:16.185Z,42.92
2018-07-22T15:08:46.470Z,43.00
2018-07-22T15:11:17.326Z,41.98
2018-07-22T15:13:47.549Z,41.04
2018-07-22T15:16:17.895Z,42.04
2018-07-22T15:18:48.937Z,41.00
2018-07-22T15:21:19.992Z,42.67
2018-07-22T15:23:50.258Z,43.36
2018-07-22T15:26:21.301Z,44.81
2018-07-22T15:28:51.611Z,45.24
2018-07-22T15:31:21.783Z,46.50
2018-07-22T15:33:51.856Z,47.39
2018-07-22T15:36:22.926Z,46.29
2018-07-22T15:38:54.216Z,46.32
2018-07-22T15:41:24.922Z,44.96
2018-07-22T15:43:55.650Z,46.05
2018-07-22T15:46:26.271Z,45.54
2018-07-22T15:49:08.080Z,45.02
2018-07-22T15:51:38.319Z,44.93
2018-07-22T15:54:09.086Z,44.77
2018-07-22T15:56:39.426Z,44.98
2018-07-22T15:59:11.189Z,44.10
2018-07-22T16:01:41.668Z,43.38
2018-07-22T16:04:13.697Z,43.12
2018-07-22T16:06:43.765Z,44.42
2018-07-22T16:09:13.658Z,43.82
2018-07-22T16:11:44.133Z,45.71
2018-07-22T16:14:14.104Z,45.23
2018-07-22T16:16:44.177Z,44.57
2018-07-22T16:19:14.079Z,44.26
2018-07-22T16:21:44.448Z,44.72
2018-07-22T16:24:14.349Z,45.02
2018-07-22T16:26:44.269Z,44.07
2018-07-22T16:29:14.051Z,43.81
2018-07-22T16:31:44.198Z,44.47
2018-07-22T16:34:14.180Z,45.02
2018-07-22T16:36:44.076Z,44.54
2018-07-22T16:39:14.076Z,44.99
2018-07-22T16:41:44.008Z,43.66
2018-07-22T16:44:13.990Z,43.11
2018-07-22T16:46:44.131Z,43.36
2018-07-22T16:49:13.967Z,43.95
2018-07-22T16:51:43.969Z,43.88
2018-07-22T16:54:14.017Z,44.67
2018-07-22T16:56:43.981Z,44.88
2018-07-22T16:59:13.772Z,45.00
2018-07-22T17:01:43.658Z,45.22
2018-07-22T17:04:13.737Z,45.81
2018-07-22T17:06:43.646Z,46.09
2018-07-22T17:09:13.482Z,45.78
2018-07-22T17:11:43.480Z,45.77
2018-07-22T17:14:13.659Z,46.29
2018-07-22T17:16:44.330Z,45.82
2018-07-22T17:19:14.199Z,45.63
2018-07-22T17:21:44.172Z,45.23
2018-07-22T17:24:14.269Z,45.11
2018-07-22T17:26:44.184Z,45.64
2018-07-22T17:29:14.295Z,46.53
2018-07-22T17:31:44.245Z,46.79
2018-07-22T17:34:14.214Z,45.94
2018-07-22T17:36:44.280Z,46.35
2018-07-22T17:39:14.280Z,46.47
2018-07-22T17:41:44.462Z,46.47
2018-07-22T17:44:14.340Z,46.63
2018-07-22T17:46:44.540Z,47.50
2018-07-22T17:49:14.992Z,47.49
2018-07-22T17:51:44.921Z,47.90
2018-07-22T17:54:14.781Z,48.17
2018-07-22T17:56:44.840Z,48.05
2018-07-22T17:59:15.052Z,47.91
2018-07-22T18:01:44.987Z,48.17
2018-07-22T18:04:15.011Z,49.01
2018-07-22T18:06:45.044Z,48.18
2018-07-22T18:09:15.390Z,49.26
2018-07-22T18:11:45.681Z,49.41
2018-07-22T18:14:15.923Z,48.84
2018-07-22T18:16:45.924Z,49.31
2018-07-22T18:19:16.155Z,49.90
2018-07-22T18:21:47.410Z,49.58
2018-07-22T18:24:17.581Z,49.33
2018-07-22T18:26:47.556Z,49.80
2018-07-22T18:29:17.987Z,49.89
2018-07-22T18:31:48.819Z,50.10
2018-07-22T18:34:18.759Z,49.73
2018-07-22T18:36:48.986Z,50.19
2018-07-22T18:39:19.113Z,50.66
2018-07-22T18:41:49.025Z,50.29
2018-07-22T18:44:19.091Z,50.61
2018-07-22T18:46:49.058Z,51.30
2018-07-22T18:49:18.996Z,51.02
2018-07-22T18:51:48.997Z,51.64
2018-07-22T18:54:19.046Z,52.79
2018-07-22T18:56:48.964Z,52.80
2018-07-22T18:59:18.918Z,52.82
2018-07-22T19:01:48.922Z,53.51
2018-07-22T19:04:18.865Z,52.75
2018-07-22T19:06:48.857Z,53.44
2018-07-22T19:09:18.986Z,53.12
2018-07-22T19:11:52.669Z,52.73
2018-07-22T19:14:22.633Z,53.34
2018-07-22T19:16:52.535Z,52.92
2018-07-22T19:19:22.752Z,53.78
2018-07-22T19:21:52.653Z,53.44
2018-07-22T19:24:22.662Z,54.29
2018-07-22T19:26:53.832Z,55.51
2018-07-22T19:29:23.965Z,55.73
2018-07-22T19:31:53.887Z,56.13
2018-07-22T19:34:23.832Z,56.22
2018-07-22T19:36:53.923Z,56.63
2018-07-22T19:39:25.205Z,57.17
2018-07-22T19:41:55.412Z,57.37
2018-07-22T19:44:27.764Z,56.38
2018-07-22T19:46:58.462Z,58.25
2018-07-22T19:49:28.570Z,58.76
2018-07-22T19:51:59.227Z,57.98
2018-07-22T19:54:29.896Z,58.36
2018-07-22T19:57:00.005Z,58.59
2018-07-22T19:59:32.501Z,59.52
2018-07-22T20:02:02.943Z,58.74
2018-07-22T20:07:43.308Z,59.63
2018-07-22T20:10:16.213Z,59.12
2018-07-22T20:12:50.177Z,58.70
2018-07-22T20:15:21.615Z,59.16
2018-07-22T20:17:52.107Z,59.19
2018-07-22T20:20:24.392Z,60.27
2018-07-22T20:22:54.541Z,60.44
2018-07-22T20:25:25.213Z,60.58
2018-07-22T20:27:55.500Z,61.25
2018-07-22T20:30:26.039Z,59.74
2018-07-22T20:32:56.142Z,59.50
2018-07-22T20:35:26.372Z,59.09
2018-07-22T20:37:56.985Z,58.77
2018-07-22T20:40:26.939Z,58.53
2018-07-22T20:42:57.281Z,57.63
2018-07-22T20:45:27.969Z,57.57
2018-07-22T20:47:58.387Z,56.90
2018-07-22T20:50:29.766Z,57.77
2018-07-22T20:52:59.964Z,57.22
2018-07-22T20:55:30.557Z,57.96
2018-07-22T20:58:00.638Z,58.12
2018-07-22T21:00:31.404Z,59.18
2018-07-22T21:03:01.759Z,58.80
2018-07-22T21:05:32.009Z,59.78
2018-07-22T21:08:02.149Z,59.86
2018-07-22T21:10:33.372Z,59.61
2018-07-22T21:13:14.358Z,58.77
2018-07-22T21:15:44.516Z,58.08
2018-07-22T21:18:14.957Z,56.69
2018-07-22T21:20:45.649Z,57.15
2018-07-22T21:23:16.173Z,58.38
2018-07-22T21:25:46.917Z,58.45
2018-07-22T21:28:17.440Z,57.73
2018-07-22T21:30:47.864Z,58.22
2018-07-22T21:33:18.895Z,57.85
2018-07-22T21:35:49.746Z,60.31
2018-07-22T21:38:20.140Z,62.96
2018-07-22T21:40:51.073Z,64.63
2018-07-22T21:43:21.962Z,66.20
2018-07-22T21:45:52.393Z,66.49
2018-07-22T21:48:22.519Z,67.62
2018-07-22T21:50:52.731Z,67.39
2018-07-22T21:53:22.624Z,66.80
2018-07-22T21:55:52.612Z,66.90
2018-07-22T21:58:22.714Z,66.10
2018-07-22T22:01:06.654Z,65.25
2018-07-22T22:03:40.755Z,66.36
2018-07-22T22:06:12.290Z,67.01
2018-07-22T22:08:42.278Z,65.29
2018-07-22T22:11:12.672Z,64.74
2018-07-22T22:13:43.042Z,63.76
2018-07-22T22:16:13.284Z,64.33
2018-07-22T22:18:43.970Z,63.88
2018-07-22T22:21:14.849Z,64.52
2018-07-22T22:23:44.973Z,65.15
2018-07-22T22:26:15.050Z,65.29
2018-07-22T22:28:50.580Z,67.15
2018-07-22T22:31:21.077Z,67.53
2018-07-22T22:33:51.075Z,66.21
2018-07-22T22:36:21.318Z,65.20
2018-07-22T22:38:51.336Z,63.92
2018-07-22T22:41:21.313Z,63.03
2018-07-22T22:43:51.258Z,63.03
2018-07-22T22:46:22.500Z,63.19
2018-07-22T22:48:52.690Z,62.64
2018-07-22T22:51:22.862Z,62.33
2018-07-22T22:53:54.547Z,63.47
2018-07-22T22:56:26.394Z,63.30
2018-07-22T22:59:10.101Z,62.41
2018-07-22T23:01:40.489Z,63.27
2018-07-22T23:04:15.955Z,63.37
2018-07-22T23:06:50.169Z,63.81
2018-07-22T23:09:20.176Z,64.53
2018-07-22T23:11:50.420Z,66.69
2018-07-22T23:14:20.568Z,67.16
2018-07-22T23:16:51.615Z,67.27
2018-07-22T23:19:22.278Z,67.69
2018-07-22T23:22:00.145Z,69.49
2018-07-22T23:24:34.928Z,72.88
2018-07-22T23:27:09.444Z,72.42
2018-07-22T23:29:40.509Z,71.56
2018-07-22T23:32:10.797Z,72.42
2018-07-22T23:34:40.928Z,72.55
2018-07-22T23:37:11.094Z,73.21
2018-07-22T23:39:40.911Z,73.03
2018-07-22T23:42:11.011Z,71.25
2018-07-22T23:44:40.978Z,70.54
2018-07-22T23:47:11.151Z,69.93
2018-07-22T23:49:41.380Z,69.15
2018-07-22T23:52:12.298Z,69.62
2018-07-22T23:54:42.211Z,68.78
2018-07-22T23:57:12.165Z,69.13
2018-07-22T23:59:42.215Z,68.62
